createdAt,value
2023-01-29T00:02:49.035Z,76.18
2023-01-29T00:07:00.697Z,76.03
2023-01-29T00:11:12.677Z,75.83
2023-01-29T00:15:24.208Z,76.20
2023-01-29T00:19:36.203Z,75.89
2023-01-29T00:23:48.631Z,76.20
2023-01-29T00:28:00.193Z,75.93
2023-01-29T00:32:11.903Z,76.14
2023-01-29T00:36:25.487Z,76.35
2023-01-29T00:40:58.438Z,76.01
2023-01-29T00:45:10.686Z,76.17
2023-01-29T00:49:22.451Z,75.41
2023-01-29T00:53:35.145Z,75.86
2023-01-29T00:57:48.163Z,75.93
2023-01-29T01:02:18.444Z,75.82
2023-01-29T01:06:29.964Z,75.76
2023-01-29T01:10:41.466Z,76.15
2023-01-29T01:14:52.969Z,75.85
2023-01-29T01:19:05.093Z,75.96
2023-01-29T01:23:17.621Z,76.09
2023-01-29T01:27:29.176Z,76.20
2023-01-29T01:31:40.695Z,76.09
2023-01-29T01:35:52.222Z,76.43
2023-01-29T01:40:12.493Z,75.91
2023-01-29T01:44:52.088Z,76.00
2023-01-29T01:49:16.063Z,76.33
2023-01-29T01:53:34.446Z,76.12
2023-01-29T01:57:50.624Z,75.97
2023-01-29T02:02:20.808Z,76.36
2023-01-29T02:06:52.436Z,76.04
2023-01-29T02:11:05.952Z,76.59
2023-01-29T02:15:17.508Z,76.45
2023-01-29T02:19:45.399Z,76.42
2023-01-29T02:24:18.268Z,76.75
2023-01-29T02:28:58.217Z,76.46
2023-01-29T02:33:12.610Z,76.72
2023-01-29T02:37:34.910Z,76.65
2023-01-29T02:41:59.975Z,76.68
2023-01-29T02:46:21.116Z,76.93
2023-01-29T02:50:43.181Z,76.81
2023-01-29T02:55:02.930Z,76.48
2023-01-29T02:59:21.077Z,76.31
2023-01-29T03:03:38.305Z,76.48
2023-01-29T03:07:56.480Z,76.56
2023-01-29T03:12:33.924Z,76.16
2023-01-29T03:16:52.983Z,76.58
2023-01-29T03:21:31.024Z,76.63
2023-01-29T03:26:03.171Z,76.38
2023-01-29T03:30:37.622Z,76.36
2023-01-29T03:35:12.697Z,76.32
2023-01-29T03:39:29.924Z,76.39
2023-01-29T03:43:50.813Z,76.38
2023-01-29T03:48:16.403Z,76.48
2023-01-29T03:52:45.517Z,76.70
2023-01-29T03:57:16.028Z,76.64
2023-01-29T04:01:36.784Z,76.20
2023-01-29T04:06:09.675Z,76.33
2023-01-29T04:10:28.249Z,76.29
2023-01-29T04:14:40.319Z,76.76
2023-01-29T04:18:52.546Z,76.44
2023-01-29T04:23:21.853Z,76.50
2023-01-29T04:27:57.130Z,76.71
2023-01-29T04:32:28.297Z,76.62
2023-01-29T04:36:52.742Z,76.24
2023-01-29T04:41:26.874Z,76.40
2023-01-29T04:45:58.107Z,76.69
2023-01-29T04:50:27.836Z,76.71
2023-01-29T04:55:06.167Z,76.86
2023-01-29T04:59:27.648Z,77.13
2023-01-29T05:03:42.524Z,76.90
2023-01-29T05:07:55.426Z,77.04
2023-01-29T05:12:10.535Z,77.18
2023-01-29T05:16:27.942Z,77.31
2023-01-29T05:20:42.237Z,76.95
2023-01-29T05:24:53.778Z,77.15
2023-01-29T05:29:05.391Z,77.00
2023-01-29T05:33:23.610Z,77.07
2023-01-29T05:37:35.172Z,77.15
2023-01-29T05:41:46.759Z,77.33
2023-01-29T05:46:00.317Z,77.30
2023-01-29T05:50:13.094Z,76.98
2023-01-29T05:54:24.574Z,77.23
2023-01-29T05:58:36.242Z,76.89
2023-01-29T06:02:47.785Z,77.08
2023-01-29T06:06:59.381Z,77.05
2023-01-29T06:11:13.201Z,77.23
2023-01-29T06:15:26.341Z,77.36
2023-01-29T06:19:37.870Z,77.29
2023-01-29T06:23:49.356Z,76.99
2023-01-29T06:28:00.857Z,77.12
2023-01-29T06:32:12.614Z,76.82
2023-01-29T06:36:24.205Z,77.31
2023-01-29T06:40:35.755Z,77.30
2023-01-29T06:44:47.351Z,76.75
2023-01-29T06:49:00.497Z,76.78
2023-01-29T06:53:12.747Z,76.94
2023-01-29T06:57:24.355Z,76.84
2023-01-29T07:01:40.989Z,76.77
2023-01-29T07:05:53.159Z,77.03
2023-01-29T07:10:05.065Z,76.97
2023-01-29T07:14:16.539Z,76.73
2023-01-29T07:18:29.181Z,76.54
2023-01-29T07:22:40.669Z,76.61
2023-01-29T07:26:52.236Z,76.75
2023-01-29T07:31:04.166Z,76.58
2023-01-29T07:35:15.759Z,76.76
2023-01-29T07:39:27.301Z,76.41
2023-01-29T07:43:38.774Z,77.01
2023-01-29T07:47:54.989Z,76.84
2023-01-29T07:52:06.447Z,76.84
2023-01-29T07:56:17.888Z,76.57
2023-01-29T08:00:30.776Z,76.93
2023-01-29T08:04:42.318Z,76.94
2023-01-29T08:08:55.697Z,76.41
2023-01-29T08:13:07.709Z,76.48
2023-01-29T08:17:19.285Z,76.52
2023-01-29T08:21:30.861Z,76.29
2023-01-29T08:25:42.655Z,76.05
2023-01-29T08:29:54.159Z,76.19
2023-01-29T08:34:05.657Z,76.44
2023-01-29T08:38:17.726Z,76.65
2023-01-29T08:42:29.222Z,76.69
2023-01-29T08:46:40.790Z,76.58
2023-01-29T08:50:52.310Z,76.69
2023-01-29T08:55:03.969Z,75.85
2023-01-29T08:59:15.726Z,75.61
2023-01-29T09:03:27.328Z,75.58
2023-01-29T09:07:39.232Z,75.19
2023-01-29T09:11:50.913Z,75.29
2023-01-29T09:16:04.062Z,74.79
2023-01-29T09:20:16.519Z,75.22
2023-01-29T09:24:28.262Z,75.19
2023-01-29T09:28:40.083Z,74.70
2023-01-29T09:32:54.432Z,74.42
2023-01-29T09:37:06.647Z,74.28
2023-01-29T09:41:33.713Z,74.01
2023-01-29T09:46:06.813Z,74.17
2023-01-29T09:50:26.643Z,74.11
2023-01-29T09:54:59.873Z,73.88
2023-01-29T09:59:14.153Z,73.91
2023-01-29T10:03:49.276Z,73.54
2023-01-29T10:08:29.035Z,73.48
2023-01-29T10:12:58.910Z,73.75
2023-01-29T10:17:36.174Z,73.71
2023-01-29T10:22:09.429Z,73.65
2023-01-29T10:26:26.319Z,73.25
2023-01-29T10:30:40.977Z,72.84
2023-01-29T10:34:59.840Z,73.12
2023-01-29T10:39:17.737Z,72.35
2023-01-29T10:43:38.632Z,72.62
2023-01-29T10:47:57.229Z,72.24
2023-01-29T10:52:44.333Z,72.31
2023-01-29T10:57:07.948Z,72.56
2023-01-29T11:01:19.484Z,72.22
2023-01-29T11:06:01.539Z,72.46
2023-01-29T11:10:22.141Z,72.07
2023-01-29T11:14:44.510Z,72.27
2023-01-29T11:18:59.362Z,71.92
2023-01-29T11:23:31.315Z,71.40
2023-01-29T11:27:52.815Z,71.40
2023-01-29T11:32:07.532Z,71.56
2023-01-29T11:36:38.692Z,71.47
2023-01-29T11:40:50.689Z,71.36
2023-01-29T11:45:02.213Z,70.74
2023-01-29T11:49:25.112Z,71.13
2023-01-29T11:53:43.774Z,70.84
2023-01-29T11:58:01.153Z,70.96
2023-01-29T12:02:31.553Z,71.10
2023-01-29T12:06:44.993Z,70.64
2023-01-29T12:11:24.505Z,71.26
2023-01-29T12:15:41.411Z,70.81
2023-01-29T12:19:59.715Z,70.84
2023-01-29T12:24:23.299Z,70.49
2023-01-29T12:28:42.233Z,71.32
2023-01-29T12:33:03.081Z,71.38
2023-01-29T12:37:51.915Z,71.61
2023-01-29T12:42:18.967Z,71.56
2023-01-29T12:46:37.924Z,71.39
2023-01-29T12:50:52.640Z,71.38
2023-01-29T12:55:15.930Z,71.72
2023-01-29T12:59:44.459Z,71.47
2023-01-29T13:04:26.157Z,72.23
2023-01-29T13:08:45.677Z,71.82
2023-01-29T13:13:06.172Z,71.95
2023-01-29T13:17:41.082Z,72.05
2023-01-29T13:21:55.969Z,72.20
2023-01-29T13:26:07.645Z,72.38
2023-01-29T13:30:25.377Z,72.40
2023-01-29T13:34:43.983Z,72.55
2023-01-29T13:39:05.939Z,72.73
2023-01-29T13:43:23.777Z,72.49
2023-01-29T13:47:38.477Z,73.25
2023-01-29T13:51:50.164Z,72.97
2023-01-29T13:56:32.641Z,73.28
2023-01-29T14:00:44.078Z,72.85
2023-01-29T14:05:30.083Z,73.68
2023-01-29T14:10:02.300Z,73.34
2023-01-29T14:14:49.253Z,73.30
2023-01-29T14:19:02.952Z,73.06
2023-01-29T14:23:41.211Z,72.72
2023-01-29T14:27:53.006Z,72.39
2023-01-29T14:32:19.250Z,72.96
2023-01-29T14:36:40.312Z,72.62
2023-01-29T14:41:04.255Z,72.74
2023-01-29T14:45:28.506Z,72.72
2023-01-29T14:49:54.792Z,73.00
2023-01-29T14:54:27.954Z,72.16
2023-01-29T14:58:47.571Z,72.85
2023-01-29T15:03:02.265Z,72.84
2023-01-29T15:07:38.676Z,72.97
2023-01-29T15:12:05.980Z,73.22
2023-01-29T15:16:57.375Z,73.39
2023-01-29T15:21:13.673Z,73.22
2023-01-29T15:25:26.950Z,73.30
2023-01-29T15:29:39.513Z,73.58
2023-01-29T15:33:53.739Z,73.81
2023-01-29T15:38:20.349Z,73.70
2023-01-29T15:42:44.594Z,73.59
2023-01-29T15:47:00.667Z,73.52
2023-01-29T15:51:19.446Z,73.83
2023-01-29T15:55:33.109Z,74.05
2023-01-29T15:59:45.536Z,74.04
2023-01-29T16:04:02.255Z,74.48
2023-01-29T16:08:17.214Z,74.49
2023-01-29T16:12:28.815Z,74.28
2023-01-29T16:16:44.971Z,73.97
2023-01-29T16:21:00.366Z,74.10
2023-01-29T16:25:15.564Z,74.45
2023-01-29T16:29:32.972Z,74.61
2023-01-29T16:33:45.452Z,74.88
2023-01-29T16:38:03.198Z,74.42
2023-01-29T16:42:19.831Z,74.45
2023-01-29T16:46:45.340Z,74.82
2023-01-29T16:51:06.289Z,74.98
2023-01-29T16:55:22.950Z,75.82
2023-01-29T16:59:38.244Z,76.12
2023-01-29T17:04:13.611Z,76.40
2023-01-29T17:08:34.879Z,76.63
2023-01-29T17:13:05.337Z,77.53
2023-01-29T17:17:18.895Z,78.13
2023-01-29T17:21:30.718Z,79.07
2023-01-29T17:25:42.843Z,79.33
2023-01-29T17:29:54.915Z,78.93
2023-01-29T17:34:11.078Z,78.94
2023-01-29T17:38:26.380Z,79.03
2023-01-29T17:42:40.134Z,79.23
2023-01-29T17:46:52.269Z,79.51
2023-01-29T17:51:04.651Z,79.58
2023-01-29T17:55:16.661Z,79.50
2023-01-29T17:59:34.153Z,79.95
2023-01-29T18:03:45.714Z,79.34
2023-01-29T18:07:57.530Z,79.37
2023-01-29T18:12:10.820Z,79.27
2023-01-29T18:16:23.139Z,78.90
2023-01-29T18:20:38.478Z,79.03
2023-01-29T18:24:49.985Z,78.84
2023-01-29T18:29:30.025Z,78.58
2023-01-29T18:33:41.545Z,78.33
2023-01-29T18:37:53.102Z,78.12
2023-01-29T18:42:04.741Z,78.28
2023-01-29T18:46:17.744Z,77.98
2023-01-29T18:50:29.287Z,77.68
2023-01-29T18:54:40.865Z,78.21
2023-01-29T18:58:56.030Z,77.84
2023-01-29T19:03:07.561Z,77.95
2023-01-29T19:07:19.037Z,77.90
2023-01-29T19:11:30.607Z,78.27
2023-01-29T19:15:43.237Z,78.39
2023-01-29T19:19:56.504Z,78.66
2023-01-29T19:24:10.063Z,78.42
2023-01-29T19:28:21.896Z,78.46
2023-01-29T19:32:33.773Z,78.61
2023-01-29T19:36:45.344Z,79.24
2023-01-29T19:40:59.727Z,78.90
2023-01-29T19:45:11.411Z,79.22
2023-01-29T19:49:22.979Z,79.60
2023-01-29T19:53:36.273Z,79.26
2023-01-29T19:57:48.350Z,79.72
2023-01-29T20:02:00.205Z,80.50
2023-01-29T20:06:12.968Z,80.35
2023-01-29T20:10:24.519Z,80.80
2023-01-29T20:14:36.085Z,80.92
2023-01-29T20:18:47.821Z,80.80
2023-01-29T20:23:01.387Z,80.67
2023-01-29T20:27:13.004Z,80.92
2023-01-29T20:31:24.535Z,81.18
2023-01-29T20:35:38.215Z,81.29
2023-01-29T20:39:49.780Z,81.75
2023-01-29T20:44:01.428Z,81.45
2023-01-29T20:48:13.194Z,81.54
2023-01-29T20:52:25.280Z,82.12
2023-01-29T20:56:44.611Z,82.11
2023-01-29T21:00:58.580Z,82.29
2023-01-29T21:05:10.137Z,82.06
2023-01-29T21:09:21.640Z,82.19
2023-01-29T21:13:58.235Z,82.35
2023-01-29T21:18:10.381Z,82.62
2023-01-29T21:22:23.944Z,83.57
2023-01-29T21:26:38.252Z,83.68
2023-01-29T21:30:49.827Z,83.14
2023-01-29T21:35:01.377Z,83.89
2023-01-29T21:39:20.815Z,83.91
2023-01-29T21:43:32.725Z,84.19
2023-01-29T21:47:44.377Z,84.65
2023-01-29T21:51:55.913Z,83.83
2023-01-29T21:56:07.606Z,83.99
2023-01-29T22:00:19.575Z,84.21
2023-01-29T22:04:31.132Z,84.77
2023-01-29T22:08:42.707Z,85.02
2023-01-29T22:12:54.374Z,85.36
2023-01-29T22:17:06.122Z,85.44
2023-01-29T22:21:17.696Z,85.81
2023-01-29T22:25:29.875Z,85.76
2023-01-29T22:29:41.766Z,85.83
2023-01-29T22:33:53.455Z,85.65
2023-01-29T22:38:05.053Z,85.94
2023-01-29T22:42:19.218Z,85.87
2023-01-29T22:46:30.838Z,86.38
2023-01-29T22:50:42.431Z,86.87
2023-01-29T22:54:53.914Z,87.06
2023-01-29T22:59:05.409Z,87.38
2023-01-29T23:03:17.092Z,87.23
2023-01-29T23:07:28.738Z,87.42
2023-01-29T23:11:40.259Z,87.13
2023-01-29T23:15:59.564Z,87.63
2023-01-29T23:20:11.801Z,88.11
2023-01-29T23:24:23.388Z,88.39
2023-01-29T23:28:34.830Z,88.60
2023-01-29T23:32:46.416Z,88.86
2023-01-29T23:36:57.885Z,88.46
2023-01-29T23:41:09.416Z,89.27
2023-01-29T23:45:20.917Z,89.28
2023-01-29T23:49:32.435Z,89.40
2023-01-29T23:53:44.066Z,89.63
2023-01-29T23:57:55.607Z,89.32
